Terminal Aerodrome Forecast
Issued by NWS

Current Version | Previous Version | Graphics & Text | Print | Product List | Glossary On
Versions: 1 2 3 4 5 6 7 8 9 10 11 12 13 14 15 16 17 18 19 20 21 22
000
FTUS41 KPBZ 212300
TAFHLG
TAF
KHLG 212322Z 2200/2224 31008KT P6SM VCSH BKN015 OVC025
     FM220500 32005KT 5SM BR VCSH BKN008
     FM221300 33008KT P6SM BKN015 OVC025
     FM221500 33009KT P6SM BKN025
     FM222000 34008KT P6SM BKN035=

USA.gov is the U.S. government's official web portal to all federal, state and local government web resources and services.